Time;durP1;ratioP1;P1;durP2;ratioP2;P2;SDS_P1;SDS_P2;PMS_P1;PMS_P2;Temp;Humidity;BMP_temperature;BMP_pressure;BME280_temperature;BME280_humidity;BME280_pressure;Samples;Min_cycle;Max_cycle;Signal;HPM_P1;HPM_P2
2022/06/15 00:00:34;;;;;;;5.20;2.63;;;;;;;9.78;51.47;102119.53;4997634;28;20041;-77
2022/06/15 00:03:00;;;;;;;6.38;3.53;;;;;;;9.70;51.69;102127.50;4997344;28;20042;-77
2022/06/15 00:05:26;;;;;;;8.18;4.38;;;;;;;9.61;52.31;102125.03;5014187;28;20026;-77
2022/06/15 00:07:52;;;;;;;9.25;3.63;;;;;;;9.63;52.45;102120.63;4997483;28;20096;-78
2022/06/15 00:10:19;;;;;;;4.28;2.72;;;;;;;9.72;52.13;102125.72;4998424;28;20025;-78
2022/06/15 00:12:45;;;;;;;5.07;2.92;;;;;;;9.70;52.38;102121.41;4997291;28;20048;-78
2022/06/15 00:15:13;;;;;;;3.85;3.15;;;;;;;9.70;52.74;102122.28;5000018;28;20402;-78
2022/06/15 00:17:39;;;;;;;4.88;3.03;;;;;;;9.71;52.83;102121.38;5004565;28;20580;-76
2022/06/15 00:20:05;;;;;;;4.47;3.28;;;;;;;9.77;52.77;102116.06;5000328;28;20045;-77
2022/06/15 00:22:31;;;;;;;6.85;3.40;;;;;;;9.90;52.44;102115.88;4996184;28;20104;-77
2022/06/15 00:24:56;;;;;;;9.10;3.80;;;;;;;10.08;52.27;102117.28;4997330;28;20166;-77
2022/06/15 00:27:22;;;;;;;5.63;3.75;;;;;;;10.14;52.10;102115.44;4997779;28;20492;-77
2022/06/15 00:29:47;;;;;;;4.70;3.25;;;;;;;10.08;52.22;102112.06;4999308;28;20507;-77
2022/06/15 00:32:13;;;;;;;7.13;3.90;;;;;;;10.19;51.89;102111.00;5010854;28;20625;-77
2022/06/15 00:34:39;;;;;;;4.78;2.97;;;;;;;10.18;52.21;102117.09;5012232;28;20034;-76
2022/06/15 00:37:05;;;;;;;5.85;3.83;;;;;;;10.07;52.17;102110.34;4995649;28;20029;-68
2022/06/15 00:39:32;;;;;;;6.85;3.60;;;;;;;10.02;52.28;102111.28;4996687;28;20038;-67
2022/06/15 00:41:58;;;;;;;4.50;3.53;;;;;;;10.07;52.52;102116.44;4990176;28;20033;-66
2022/06/15 00:44:24;;;;;;;5.38;3.55;;;;;;;10.21;52.19;102116.19;4990782;28;20044;-66
2022/06/15 00:47:00;;;;;;;5.45;3.20;;;;;;;10.27;51.94;102117.84;5002921;28;20080;-67
2022/06/15 00:49:35;;;;;;;4.25;3.45;;;;;;;10.30;51.96;102118.63;4992048;28;20050;-68
2022/06/15 00:52:12;;;;;;;4.93;3.53;;;;;;;10.43;51.88;102114.03;4991175;28;20108;-68
2022/06/15 00:54:38;;;;;;;4.32;3.20;;;;;;;10.53;52.07;102115.56;4989468;28;20561;-69
2022/06/15 00:57:05;;;;;;;4.07;3.20;;;;;;;10.58;51.67;102108.50;4990988;28;20026;-67
2022/06/15 00:59:40;;;;;;;6.45;3.92;;;;;;;10.67;51.75;102112.66;4994337;28;20033;-67
2022/06/15 01:02:06;;;;;;;6.30;3.40;;;;;;;10.73;51.36;102107.31;4993008;28;20038;-69
2022/06/15 01:04:40;;;;;;;6.53;3.80;;;;;;;10.60;51.27;102106.72;4991024;28;20049;-69
2022/06/15 01:07:27;;;;;;;4.82;3.53;;;;;;;10.57;51.24;102106.78;4993865;28;20120;-69
2022/06/15 01:10:12;;;;;;;3.47;2.45;;;;;;;10.52;51.71;102100.75;4991325;28;20073;-68
2022/06/15 01:12:50;;;;;;;7.28;4.25;;;;;;;10.29;51.79;102095.16;5006140;28;20046;-68
2022/06/15 01:15:34;;;;;;;9.10;4.10;;;;;;;10.13;52.31;102095.44;4992141;28;20041;-67
2022/06/15 01:18:08;;;;;;;7.05;4.43;;;;;;;10.07;52.59;102095.53;4989546;28;20491;-67
2022/06/15 01:20:53;;;;;;;10.70;4.90;;;;;;;10.02;52.61;102097.38;4992486;28;20072;-68
2022/06/15 01:23:36;;;;;;;4.85;3.53;;;;;;;10.01;52.95;102095.66;4991868;28;20085;-66
2022/06/15 01:26:55;;;;;;;6.07;3.40;;;;;;;10.08;52.61;102093.78;4993175;28;20037;-78
2022/06/15 01:29:48;;;;;;;4.25;3.17;;;;;;;10.08;52.47;102096.41;4996262;28;20056;-76
2022/06/15 01:32:30;;;;;;;5.10;3.53;;;;;;;10.09;53.07;102101.59;5009938;28;20616;-76
2022/06/15 01:35:23;;;;;;;9.35;3.85;;;;;;;10.14;52.70;102102.38;4995096;28;20430;-76
2022/06/15 01:38:21;;;;;;;4.78;3.45;;;;;;;10.28;52.29;102103.84;4983754;28;20046;-77
2022/06/15 01:40:54;;;;;;;6.22;4.07;;;;;;;10.42;52.01;102107.09;4995858;28;20046;-77
2022/06/15 01:43:27;;;;;;;7.60;3.50;;;;;;;10.42;51.75;102101.84;5009988;28;20104;-78
2022/06/15 01:45:54;;;;;;;5.63;3.08;;;;;;;10.50;52.01;102099.06;4994951;28;20080;-78
2022/06/15 01:48:20;;;;;;;6.35;3.90;;;;;;;10.59;51.73;102094.53;4994948;28;20297;-70
2022/06/15 01:50:51;;;;;;;5.68;3.10;;;;;;;10.57;51.87;102098.94;5006170;28;20116;-70
2022/06/15 01:53:32;;;;;;;6.13;3.55;;;;;;;10.56;51.72;102094.59;4989328;28;20049;-69
2022/06/15 01:56:01;;;;;;;5.88;3.58;;;;;;;10.42;52.03;102094.03;4988891;28;20045;-69
2022/06/15 01:58:30;;;;;;;5.05;3.95;;;;;;;10.28;51.93;102094.28;4991855;28;20049;-69
2022/06/15 02:01:04;;;;;;;6.97;4.47;;;;;;;10.21;52.25;102093.56;5004525;28;20030;-69
2022/06/15 02:04:13;;;;;;;6.85;4.00;;;;;;;10.20;52.11;102091.81;5011889;28;20069;-71
2022/06/15 02:06:45;;;;;;;6.07;3.92;;;;;;;10.04;52.65;102085.16;4948727;28;20452;-70
2022/06/15 02:09:55;;;;;;;5.05;3.58;;;;;;;9.99;52.16;102081.75;4946932;28;20047;-68
2022/06/15 02:12:29;;;;;;;7.75;3.95;;;;;;;10.02;52.45;102079.09;4973106;28;20050;-68
2022/06/15 02:14:59;;;;;;;6.30;3.78;;;;;;;9.93;52.23;102081.88;4988394;28;20363;-68
2022/06/15 02:17:52;;;;;;;5.00;2.90;;;;;;;9.87;52.62;102076.75;4995718;28;20128;-69
2022/06/15 02:20:29;;;;;;;3.83;3.35;;;;;;;9.84;52.76;102076.84;4990354;28;20049;-69
2022/06/15 02:22:59;;;;;;;5.30;2.80;;;;;;;9.93;52.76;102074.91;4988614;28;20053;-69
2022/06/15 02:25:30;;;;;;;;;;;;;;;10.12;51.97;102067.56;4994464;28;20030;-69
2022/06/15 02:27:55;;;;;;;4.38;3.17;;;;;;;10.22;51.92;102083.94;5004235;28;20015;-68
2022/06/15 02:30:24;;;;;;;4.93;3.30;;;;;;;10.28;51.95;102077.72;4993622;28;20124;-69
2022/06/15 02:32:55;;;;;;;3.95;2.92;;;;;;;10.39;51.89;102073.16;4993637;28;20054;-71
2022/06/15 02:35:22;;;;;;;9.05;3.85;;;;;;;10.31;52.08;102067.25;5009615;28;20022;-71
2022/06/15 02:37:50;;;;;;;5.57;3.30;;;;;;;10.36;51.93;102070.59;4987432;28;20077;-68
2022/06/15 02:40:21;;;;;;;6.18;3.60;;;;;;;10.38;51.78;102063.59;5007073;28;20080;-68
2022/06/15 02:42:49;;;;;;;5.72;3.78;;;;;;;10.35;52.02;102071.50;4989338;28;20389;-68
2022/06/15 02:45:23;;;;;;;5.05;3.85;;;;;;;10.45;51.77;102073.03;4993732;28;20037;-69
2022/06/15 02:47:52;;;;;;;6.40;3.50;;;;;;;10.56;51.62;102067.59;4988383;28;20037;-67
2022/06/15 02:50:21;;;;;;;6.97;3.28;;;;;;;10.41;51.40;102068.75;5008443;28;20088;-68
2022/06/15 02:53:04;;;;;;;4.07;3.28;;;;;;;10.32;51.59;102074.16;5003724;28;20101;-68
2022/06/15 02:55:31;;;;;;;4.50;2.50;;;;;;;10.37;52.22;102074.94;4992563;28;20033;-68
2022/06/15 02:58:08;;;;;;;5.95;3.55;;;;;;;10.36;52.13;102070.59;4999616;28;20033;-70
2022/06/15 03:00:43;;;;;;;5.25;3.63;;;;;;;10.47;52.35;102068.63;5011164;28;20029;-70
2022/06/15 03:03:09;;;;;;;5.57;2.85;;;;;;;10.70;51.59;102067.28;5012280;28;20036;-70
2022/06/15 03:05:35;;;;;;;5.65;3.45;;;;;;;10.73;51.64;102069.84;5000853;28;20588;-68
2022/06/15 03:08:01;;;;;;;4.00;3.05;;;;;;;10.70;51.63;102064.69;4993795;28;20038;-69
2022/06/15 03:10:28;;;;;;;9.73;3.85;;;;;;;10.61;51.64;102063.97;4997323;28;20037;-68
2022/06/15 03:12:55;;;;;;;5.78;3.88;;;;;;;10.57;52.07;102064.94;4986819;28;20042;-68
2022/06/15 03:15:21;;;;;;;5.22;3.00;;;;;;;10.64;52.27;102065.69;5008931;28;20345;-69
2022/06/15 03:17:47;;;;;;;9.35;3.55;;;;;;;10.77;51.89;102059.28;4995867;28;20042;-68
2022/06/15 03:20:14;;;;;;;4.68;3.55;;;;;;;10.91;51.45;102064.25;4994608;28;20355;-74
2022/06/15 03:22:43;;;;;;;5.03;3.65;;;;;;;10.91;51.33;102064.25;4993809;28;20054;-71
2022/06/15 03:25:15;;;;;;;6.88;3.67;;;;;;;10.91;51.56;102059.03;5012060;28;20036;-70
2022/06/15 03:27:41;;;;;;;7.25;4.65;;;;;;;10.97;51.36;102064.13;5010103;28;20250;-72
2022/06/15 03:30:12;;;;;;;7.05;4.18;;;;;;;11.07;51.67;102059.53;4991890;28;20041;-70
2022/06/15 03:32:43;;;;;;;5.95;3.70;;;;;;;11.08;51.85;102060.38;5008329;28;20046;-70
2022/06/15 03:35:10;;;;;;;5.55;2.80;;;;;;;11.16;51.65;102063.69;5010079;28;20029;-68
2022/06/15 03:37:38;;;;;;;9.20;4.72;;;;;;;11.29;51.56;102056.41;4996636;28;20081;-72
2022/06/15 03:40:22;;;;;;;8.40;4.53;;;;;;;11.30;51.32;102056.34;5013602;28;20038;-69
2022/06/15 03:42:48;;;;;;;3.58;2.70;;;;;;;11.35;51.53;102051.00;5008457;28;20049;-69
2022/06/15 03:45:17;;;;;;;9.90;4.15;;;;;;;11.50;51.11;102053.25;4994887;28;20042;-69
2022/06/15 03:47:43;;;;;;;6.07;3.65;;;;;;;11.54;51.17;102049.66;4992870;28;20046;-69
2022/06/15 03:50:11;;;;;;;6.30;3.90;;;;;;;11.53;50.85;102044.44;4994752;28;20080;-69
2022/06/15 03:52:36;;;;;;;4.28;3.85;;;;;;;11.61;51.14;102045.13;4994638;28;20037;-68
2022/06/15 03:55:03;;;;;;;5.53;3.60;;;;;;;11.71;51.02;102045.72;5011500;28;20060;-70
2022/06/15 03:57:31;;;;;;;7.47;3.38;;;;;;;11.75;50.56;102048.22;5011951;28;20035;-70
2022/06/15 03:59:59;;;;;;;6.03;3.72;;;;;;;11.76;50.69;102047.34;5007558;28;20065;-70
2022/06/15 04:02:47;;;;;;;5.53;3.83;;;;;;;11.70;50.70;102050.13;4996728;28;20061;-69
2022/06/15 04:05:29;;;;;;;5.10;3.40;;;;;;;11.76;50.84;102055.19;5012749;28;20475;-69
2022/06/15 04:10:45;;;;;;;6.45;4.03;;;;;;;11.99;50.45;102056.38;5008352;28;20042;-69
2022/06/15 04:13:10;;;;;;;10.25;6.32;;;;;;;11.99;50.04;102054.59;4993510;28;20137;-69
2022/06/15 04:15:36;;;;;;;7.72;5.30;;;;;;;12.06;50.10;102048.28;4997634;28;20038;-68
2022/06/15 04:18:02;;;;;;;12.15;6.13;;;;;;;12.09;50.06;102052.63;5005354;28;20507;-70
2022/06/15 04:20:40;;;;;;;6.57;5.22;;;;;;;12.06;49.82;102058.78;4997091;28;20372;-70
2022/06/15 04:23:24;;;;;;;12.45;6.78;;;;;;;11.81;50.16;102050.72;4994901;28;20069;-69
2022/06/15 04:26:00;;;;;;;11.30;6.82;;;;;;;11.90;50.65;102046.16;4991994;28;20042;-69
2022/06/15 04:28:36;;;;;;;8.25;6.05;;;;;;;12.08;50.10;102050.88;5008349;28;20577;-71
2022/06/15 04:31:10;;;;;;;8.30;5.38;;;;;;;12.18;49.80;102054.97;4995172;28;20440;-71
2022/06/15 04:33:39;;;;;;;9.93;5.82;;;;;;;12.22;49.89;102051.38;5006043;28;20062;-70
2022/06/15 04:36:07;;;;;;;9.63;5.20;;;;;;;12.23;50.04;102049.59;4993530;28;20030;-69
2022/06/15 04:38:33;;;;;;;7.38;5.47;;;;;;;12.18;49.73;102046.22;5010455;28;20144;-73
2022/06/15 04:41:04;;;;;;;12.40;6.23;;;;;;;12.26;49.91;102055.59;4995194;28;20562;-74
2022/06/15 04:43:31;;;;;;;8.32;4.90;;;;;;;12.35;50.11;102058.88;4995422;28;20048;-73
2022/06/15 04:45:56;;;;;;;9.20;5.22;;;;;;;12.43;49.53;102064.75;4994746;28;20030;-76
2022/06/15 04:48:24;;;;;;;9.95;5.88;;;;;;;12.42;49.33;102069.16;4999818;28;20049;-73
2022/06/15 04:50:52;;;;;;;9.43;4.15;;;;;;;12.64;49.65;102071.13;4995102;28;20415;-71
2022/06/15 04:53:17;;;;;;;7.28;4.75;;;;;;;12.69;49.33;102064.88;4991532;28;20038;-71
2022/06/15 04:55:48;;;;;;;9.45;4.68;;;;;;;12.78;49.11;102069.00;4993019;28;20038;-70
2022/06/15 04:58:15;;;;;;;7.50;5.38;;;;;;;12.85;49.07;102074.91;4992741;28;20049;-70
2022/06/15 05:00:42;;;;;;;6.45;4.07;;;;;;;13.05;48.76;102069.91;4981750;28;20042;-71
2022/06/15 05:03:09;;;;;;;8.15;4.57;;;;;;;13.19;48.77;102079.13;4990500;28;21310;-71
2022/06/15 05:05:35;;;;;;;9.95;4.55;;;;;;;13.35;48.62;102074.22;5009569;28;20037;-71
2022/06/15 05:08:04;;;;;;;6.90;5.10;;;;;;;13.37;47.31;102075.03;5007213;28;20042;-70
2022/06/15 05:10:30;;;;;;;10.55;5.90;;;;;;;13.23;48.07;102070.25;5009061;28;20022;-71
2022/06/15 05:12:56;;;;;;;6.03;5.03;;;;;;;13.40;47.90;102069.66;4992626;28;20049;-70
2022/06/15 05:15:24;;;;;;;5.80;4.45;;;;;;;13.70;46.89;102067.84;4992927;28;20034;-72
2022/06/15 05:17:54;;;;;;;6.95;4.35;;;;;;;13.97;46.22;102066.00;4997134;28;20578;-72
2022/06/15 05:20:20;;;;;;;6.60;3.92;;;;;;;14.12;45.92;102072.47;5009434;28;20033;-75
2022/06/15 05:22:52;;;;;;;10.10;4.57;;;;;;;14.31;45.75;102076.16;5009487;28;20582;-74
2022/06/15 05:25:20;;;;;;;5.85;4.40;;;;;;;14.50;45.33;102073.75;5011102;28;20029;-72
2022/06/15 05:27:46;;;;;;;6.00;4.38;;;;;;;14.58;44.83;102075.22;4997966;28;20045;-72
2022/06/15 05:30:13;;;;;;;8.05;3.45;;;;;;;14.66;44.35;102074.00;4994309;28;20036;-73
2022/06/15 05:32:39;;;;;;;11.85;4.28;;;;;;;14.87;44.51;102076.72;4975662;28;20239;-72
2022/06/15 05:35:05;;;;;;;8.48;3.40;;;;;;;15.20;44.08;102068.41;4993063;28;20084;-72
2022/06/15 05:37:32;;;;;;;7.13;3.75;;;;;;;15.27;42.79;102069.91;4992136;28;20087;-72
2022/06/15 05:39:59;;;;;;;7.93;3.80;;;;;;;15.03;42.33;102066.44;4990344;28;20033;-72
2022/06/15 05:42:28;;;;;;;4.30;3.47;;;;;;;15.23;43.89;102076.19;4994161;28;20046;-72
2022/06/15 05:45:05;;;;;;;7.95;2.83;;;;;;;15.68;42.89;102069.94;4993152;28;20073;-75
2022/06/15 05:47:31;;;;;;;5.20;3.47;;;;;;;15.91;41.51;102077.72;4991588;28;20307;-69
2022/06/15 05:50:20;;;;;;;8.35;4.47;;;;;;;16.11;40.05;102086.56;4994532;28;20136;-71
2022/06/15 05:52:55;;;;;;;7.93;3.85;;;;;;;16.35;40.23;102074.03;5000146;28;20572;-74
2022/06/15 05:55:20;;;;;;;6.70;4.03;;;;;;;17.22;37.98;102077.88;4990120;28;20034;-72
2022/06/15 05:57:46;;;;;;;7.03;4.47;;;;;;;17.21;37.91;102089.34;4985491;28;20054;-71
2022/06/15 06:00:13;;;;;;;6.35;4.10;;;;;;;17.25;37.67;102084.78;5001176;28;20712;-73
2022/06/15 06:02:42;;;;;;;9.15;3.47;;;;;;;17.18;37.01;102089.53;4986345;28;20054;-75
2022/06/15 06:05:08;;;;;;;6.20;3.53;;;;;;;17.68;36.69;102081.81;4984733;28;20629;-72
2022/06/15 06:07:33;;;;;;;7.90;3.17;;;;;;;17.72;35.89;102088.66;4988141;28;20601;-74
2022/06/15 06:09:59;;;;;;;7.75;4.40;;;;;;;17.69;36.75;102094.06;4987999;28;20128;-74
2022/06/15 06:12:24;;;;;;;5.30;3.38;;;;;;;17.56;37.90;102091.19;4988622;28;20769;-74
2022/06/15 06:14:51;;;;;;;8.48;3.53;;;;;;;17.62;38.32;102094.38;4992265;28;20152;-73
2022/06/15 06:17:17;;;;;;;7.97;4.18;;;;;;;19.23;36.26;102091.97;4987506;28;20026;-72
2022/06/15 06:19:42;;;;;;;5.60;4.05;;;;;;;21.23;31.41;102091.16;4988794;28;20695;-73
2022/06/15 06:22:08;;;;;;;13.75;7.90;;;;;;;22.15;30.09;102095.56;4984484;28;20515;-74
2022/06/15 06:24:33;;;;;;;10.85;4.75;;;;;;;23.24;29.20;102086.81;4989185;28;20124;-74
2022/06/15 06:27:00;;;;;;;15.45;5.57;;;;;;;23.62;27.55;102083.06;4983431;28;20026;-71
2022/06/15 06:29:28;;;;;;;11.27;4.60;;;;;;;22.31;29.23;102086.47;4989832;28;20326;-75
2022/06/15 06:31:53;;;;;;;4.32;3.70;;;;;;;23.11;28.90;102083.38;4987042;28;20091;-73
2022/06/15 06:34:19;;;;;;;8.15;3.85;;;;;;;25.49;26.31;102085.84;4986200;28;20046;-73
2022/06/15 06:36:45;;;;;;;7.47;4.13;;;;;;;26.90;23.87;102080.66;4986149;28;20069;-75
2022/06/15 06:39:19;;;;;;;8.73;3.80;;;;;;;27.56;22.72;102077.19;4999655;28;20037;-75
2022/06/15 06:41:45;;;;;;;6.45;3.75;;;;;;;26.19;24.42;102080.75;5014325;28;20052;-76
2022/06/15 06:44:12;;;;;;;9.25;4.53;;;;;;;23.63;28.20;102084.75;5006134;28;20074;-75
2022/06/15 06:46:41;;;;;;;7.07;3.90;;;;;;;21.88;29.70;102093.00;5001852;28;20066;-76
2022/06/15 06:49:06;;;;;;;5.18;4.05;;;;;;;21.48;32.01;102094.88;4991653;28;20115;-75
2022/06/15 06:51:35;;;;;;;5.45;4.20;;;;;;;20.87;32.29;102099.75;4989168;28;20056;-74
2022/06/15 06:54:01;;;;;;;5.07;3.42;;;;;;;20.49;32.68;102098.56;4980404;28;21738;-71
2022/06/15 06:56:27;;;;;;;10.63;3.80;;;;;;;21.31;31.88;102093.28;4993310;28;20093;-72
2022/06/15 06:58:52;;;;;;;6.72;3.30;;;;;;;21.34;30.34;102096.63;4987313;28;20046;-71
2022/06/15 07:01:18;;;;;;;12.45;3.50;;;;;;;22.20;30.13;102091.72;4994144;28;20076;-70
2022/06/15 07:03:43;;;;;;;9.65;4.75;;;;;;;21.75;30.45;102090.31;4989168;28;20050;-72
2022/06/15 07:06:09;;;;;;;6.30;4.07;;;;;;;21.39;30.83;102090.13;4991936;28;21451;-72
2022/06/15 07:08:37;;;;;;;8.02;3.40;;;;;;;21.07;31.89;102098.44;4991071;28;20058;-74
2022/06/15 07:11:12;;;;;;;8.80;3.75;;;;;;;20.49;32.09;102095.91;4991517;28;20041;-74
2022/06/15 07:13:39;;;;;;;11.32;3.83;;;;;;;20.77;31.48;102104.75;4991600;28;20053;-71
2022/06/15 07:16:06;;;;;;;6.25;4.28;;;;;;;21.19;32.53;102100.28;5002783;28;20513;-73
2022/06/15 07:18:32;;;;;;;6.82;3.45;;;;;;;20.76;30.66;102103.06;4991545;28;20050;-73
2022/06/15 07:21:12;;;;;;;5.10;2.58;;;;;;;20.45;31.53;102101.50;4988750;28;20150;-77
2022/06/15 07:23:38;;;;;;;6.85;4.63;;;;;;;20.56;32.93;102100.81;4987485;28;20041;-73
2022/06/15 07:26:06;;;;;;;9.00;4.82;;;;;;;20.27;33.40;102108.81;4990340;28;20477;-75
2022/06/15 07:28:32;;;;;;;6.22;4.63;;;;;;;19.37;34.33;102105.28;4990474;28;20432;-74
2022/06/15 07:31:00;;;;;;;5.57;4.47;;;;;;;20.72;32.70;102112.16;4993308;28;20310;-74
2022/06/15 07:33:26;;;;;;;4.85;4.00;;;;;;;24.04;26.75;102110.09;4991728;28;20041;-73
2022/06/15 07:35:51;;;;;;;6.57;3.65;;;;;;;26.41;24.08;102106.50;4988632;28;20037;-73
2022/06/15 07:38:19;;;;;;;4.53;3.40;;;;;;;25.66;24.06;102111.19;5004879;28;20053;-73
2022/06/15 07:40:46;;;;;;;10.73;3.47;;;;;;;25.85;22.91;102111.31;4989932;28;20041;-75
2022/06/15 07:43:12;;;;;;;7.13;2.72;;;;;;;25.85;23.14;102103.28;4986432;28;20053;-78
2022/06/15 07:45:37;;;;;;;3.78;2.10;;;;;;;26.93;22.47;102115.22;4990873;28;20499;-77
2022/06/15 07:50:47;;;;;;;4.07;2.03;;;;;;;28.98;19.81;102110.09;4990732;28;20333;-75
2022/06/15 07:53:14;;;;;;;3.80;2.13;;;;;;;29.09;20.20;102109.84;4988728;28;20396;-74
2022/06/15 07:55:44;;;;;;;5.50;2.47;;;;;;;28.18;19.77;102120.59;4990783;28;20041;-74
2022/06/15 07:58:11;;;;;;;6.00;3.22;;;;;;;25.58;23.00;102125.25;4989273;28;20049;-74
2022/06/15 08:00:39;;;;;;;5.97;3.30;;;;;;;22.95;26.41;102126.31;4991761;28;20076;-74
2022/06/15 08:03:05;;;;;;;7.15;3.33;;;;;;;21.66;28.20;102119.38;4988162;28;20103;-75
2022/06/15 08:05:35;;;;;;;5.47;2.97;;;;;;;21.38;29.04;102122.97;4987988;28;20034;-75
2022/06/15 08:08:03;;;;;;;5.22;2.45;;;;;;;20.83;30.39;102125.63;4986251;28;20503;-74
2022/06/15 08:10:29;;;;;;;10.18;2.72;;;;;;;20.77;30.06;102126.00;4990548;28;20038;-76
2022/06/15 08:12:55;;;;;;;5.07;2.35;;;;;;;20.41;31.39;102129.19;4990073;28;20447;-76
2022/06/15 08:15:21;;;;;;;4.75;1.80;;;;;;;20.50;31.06;102123.31;4991617;28;20462;-74
2022/06/15 08:17:52;;;;;;;8.18;2.28;;;;;;;20.36;31.24;102120.66;4969200;28;20479;-74
2022/06/15 08:20:26;;;;;;;8.60;2.80;;;;;;;20.30;30.95;102127.19;5003119;28;20061;-74
2022/06/15 08:22:57;;;;;;;5.22;2.03;;;;;;;20.00;31.45;102119.28;4987284;28;20533;-75
2022/06/15 08:25:27;;;;;;;5.45;2.60;;;;;;;20.08;30.50;102120.53;4990942;28;20033;-75
2022/06/15 08:27:54;;;;;;;4.35;2.63;;;;;;;19.87;30.95;102125.31;4982878;28;20164;-75
2022/06/15 08:30:20;;;;;;;4.05;1.73;;;;;;;19.28;31.65;102127.88;4991616;28;20103;-74
2022/06/15 08:32:46;;;;;;;4.00;1.80;;;;;;;19.67;31.67;102126.50;4988213;28;20141;-74
2022/06/15 08:35:12;;;;;;;6.60;1.65;;;;;;;19.84;32.15;102124.69;4991215;28;20022;-74
2022/06/15 08:37:38;;;;;;;6.68;2.03;;;;;;;22.09;28.30;102117.31;4987598;28;20310;-75
2022/06/15 08:40:05;;;;;;;6.97;1.25;;;;;;;21.75;27.75;102124.91;4989028;28;20096;-74
2022/06/15 08:42:55;;;;;;;5.72;2.13;;;;;;;20.62;29.78;102124.31;4990332;28;20061;-77
2022/06/15 08:45:35;;;;;;;3.92;1.05;;;;;;;19.42;31.23;102128.88;4991609;28;20030;-74
2022/06/15 08:48:25;;;;;;;3.45;1.73;;;;;;;19.46;32.16;102125.94;4988210;28;20517;-75
2022/06/15 08:51:15;;;;;;;7.90;1.35;;;;;;;20.87;30.00;102121.84;4990019;28;20130;-75
2022/06/15 08:53:57;;;;;;;4.03;1.40;;;;;;;23.79;25.79;102112.00;4991837;28;20049;-76
2022/06/15 08:56:31;;;;;;;5.47;1.20;;;;;;;26.80;22.03;102118.16;4988532;28;20038;-75
2022/06/15 08:59:36;;;;;;;8.45;1.77;;;;;;;27.31;21.62;102105.50;4987722;28;20049;-74
2022/06/15 09:02:12;;;;;;;3.75;0.95;;;;;;;27.87;21.40;102106.56;4979578;28;20061;-75
2022/06/15 09:04:42;;;;;;;3.55;1.10;;;;;;;28.51;20.41;102104.88;4987654;28;20065;-75
2022/06/15 09:07:39;;;;;;;14.20;1.92;;;;;;;28.98;19.45;102104.72;5002165;28;20193;-75
2022/06/15 09:10:23;;;;;;;6.43;1.23;;;;;;;28.26;19.10;102107.28;4978380;28;20451;-75
2022/06/15 09:13:39;;;;;;;4.80;1.27;;;;;;;26.62;20.98;102107.28;4990198;28;20491;-74
2022/06/15 09:16:23;;;;;;;2.05;0.90;;;;;;;26.59;21.73;102102.19;4977700;28;20092;-74
2022/06/15 09:19:01;;;;;;;2.85;0.88;;;;;;;27.06;20.48;102102.38;4989174;28;20050;-76
2022/06/15 09:21:56;;;;;;;1.42;0.75;;;;;;;26.47;20.87;102090.72;4989120;28;20418;-74
2022/06/15 09:24:30;;;;;;;6.25;0.90;;;;;;;25.57;20.99;102103.94;4982162;28;20052;-75
2022/06/15 09:27:09;;;;;;;3.80;0.60;;;;;;;25.44;21.46;102112.13;4989501;28;20030;-74
2022/06/15 09:29:45;;;;;;;4.78;0.50;;;;;;;24.79;20.95;102106.75;4989913;28;20309;-74
2022/06/15 09:32:20;;;;;;;3.40;0.80;;;;;;;24.08;23.13;102110.69;4989760;28;20038;-75
2022/06/15 09:35:17;;;;;;;4.22;0.90;;;;;;;23.52;23.25;102106.97;5002320;28;20038;-74
2022/06/15 09:37:49;;;;;;;1.40;1.10;;;;;;;23.56;24.33;102104.88;4979778;28;20458;-75
2022/06/15 09:40:17;;;;;;;2.28;0.52;;;;;;;24.89;22.70;102106.88;4991070;28;20779;-73
2022/06/15 09:43:03;;;;;;;5.47;0.70;;;;;;;25.84;21.30;102098.91;4986525;28;20057;-75
2022/06/15 09:45:37;;;;;;;3.80;1.00;;;;;;;26.16;19.15;102095.28;4992302;28;20038;-72
2022/06/15 09:48:37;;;;;;;7.05;1.10;;;;;;;25.84;20.98;102087.34;4985005;28;20585;-73
2022/06/15 09:51:11;;;;;;;2.28;1.20;;;;;;;25.62;20.98;102093.69;4989882;28;20499;-75
2022/06/15 09:53:56;;;;;;;4.38;0.70;;;;;;;23.95;23.06;102097.47;4989411;28;20089;-73
2022/06/15 09:56:25;;;;;;;2.25;0.57;;;;;;;24.18;23.18;102093.81;4986972;28;20046;-73
2022/06/15 09:58:56;;;;;;;6.88;0.70;;;;;;;24.61;22.78;102092.22;4985369;28;20049;-73
2022/06/15 10:01:30;;;;;;;4.22;0.98;;;;;;;24.54;22.34;102094.56;5003464;28;20023;-72
2022/06/15 10:03:58;;;;;;;1.45;0.60;;;;;;;25.01;22.03;102097.00;4986699;28;20054;-74
2022/06/15 10:06:31;;;;;;;3.78;0.75;;;;;;;25.24;21.31;102087.06;5002654;28;20038;-74
2022/06/15 10:09:01;;;;;;;4.43;1.10;;;;;;;24.58;21.21;102092.50;4987611;28;20073;-74
2022/06/15 10:11:43;;;;;;;2.28;0.70;;;;;;;23.64;23.06;102086.47;4992378;28;20076;-74
2022/06/15 10:14:23;;;;;;;2.97;0.77;;;;;;;23.37;23.30;102081.44;4989590;28;20042;-73
2022/06/15 10:16:53;;;;;;;;;;;;;;;23.42;22.56;102082.78;4990694;28;20097;-74
2022/06/15 10:19:22;;;;;;;1.90;0.77;;;;;;;23.18;22.68;102084.59;4990932;28;19922;-73
2022/06/15 10:21:56;;;;;;;1.60;0.60;;;;;;;22.86;22.74;102079.00;4988300;28;20046;-73
2022/06/15 10:24:27;;;;;;;2.63;1.00;;;;;;;22.48;22.41;102075.47;4985021;28;20117;-73
2022/06/15 10:27:16;;;;;;;2.15;0.88;;;;;;;22.14;23.42;102069.91;4986945;28;20100;-73
2022/06/15 10:29:43;;;;;;;3.15;0.55;;;;;;;22.11;23.40;102063.94;4987746;28;20049;-74
2022/06/15 10:32:09;;;;;;;3.47;0.80;;;;;;;22.70;22.82;102065.97;4987368;28;20053;-73
2022/06/15 10:34:36;;;;;;;2.13;0.95;;;;;;;23.65;21.54;102061.47;4988327;28;20038;-75
2022/06/15 10:37:15;;;;;;;2.10;0.82;;;;;;;24.93;20.19;102064.66;4986089;28;20281;-74
2022/06/15 10:39:47;;;;;;;3.75;0.60;;;;;;;25.53;19.37;102065.03;5003196;28;20057;-75
2022/06/15 10:42:21;;;;;;;2.47;0.80;;;;;;;24.42;21.65;102066.16;4979555;28;20030;-75
2022/06/15 10:45:00;;;;;;;5.70;1.08;;;;;;;23.55;21.56;102065.84;5001280;28;20129;-74
2022/06/15 10:47:32;;;;;;;2.35;0.73;;;;;;;23.00;21.58;102071.66;4985746;28;20045;-74
2022/06/15 10:50:05;;;;;;;2.08;0.93;;;;;;;22.82;23.61;102066.88;4982699;28;20042;-74
2022/06/15 10:52:39;;;;;;;2.33;1.23;;;;;;;23.13;23.27;102065.44;4985645;28;20087;-74
2022/06/15 11:04:21;;;;;;;3.65;0.57;;;;;;;22.99;21.44;102058.47;4986198;28;20057;-75
2022/06/15 11:07:12;;;;;;;2.63;0.80;;;;;;;22.51;22.26;102053.09;4987501;28;20529;-74
2022/06/15 11:09:59;;;;;;;2.95;0.52;;;;;;;21.75;22.12;102058.38;4978412;28;20049;-75
2022/06/15 11:12:30;;;;;;;3.22;0.63;;;;;;;21.07;23.26;102045.28;4988061;28;20060;-75
2022/06/15 11:15:03;;;;;;;1.35;0.30;;;;;;;20.85;23.79;102054.66;4987608;28;20526;-74
2022/06/15 11:20:37;;;;;;;3.22;0.50;;;;;;;22.66;21.98;102056.47;4988538;28;20057;-75
2022/06/15 11:23:14;;;;;;;2.42;0.43;;;;;;;23.05;22.14;102046.50;4986173;28;20049;-74
2022/06/15 11:25:46;;;;;;;2.03;0.60;;;;;;;23.00;21.20;102047.69;4985017;28;20164;-75
2022/06/15 11:28:24;;;;;;;3.30;0.95;;;;;;;22.53;21.10;102046.69;4985032;28;20050;-72
2022/06/15 11:31:05;;;;;;;5.50;1.05;;;;;;;22.56;21.47;102040.28;4985534;28;20034;-74
2022/06/15 11:33:50;;;;;;;1.77;0.77;;;;;;;22.11;22.16;102047.97;4985205;28;20042;-73
2022/06/15 11:36:28;;;;;;;3.30;0.88;;;;;;;22.16;22.55;102043.19;4986136;28;20034;-75
2022/06/15 11:38:59;;;;;;;3.53;0.70;;;;;;;21.88;22.91;102045.09;4987017;28;20041;-75
2022/06/15 11:41:35;;;;;;;3.55;0.50;;;;;;;21.62;23.38;102044.22;4990080;28;20042;-75
2022/06/15 11:44:11;;;;;;;2.38;0.75;;;;;;;22.16;22.16;102038.69;4986510;28;20608;-75
2022/06/15 11:46:56;;;;;;;1.27;0.60;;;;;;;21.92;22.27;102040.41;4990894;28;20034;-74
2022/06/15 11:49:27;;;;;;;1.92;0.60;;;;;;;21.85;23.15;102041.81;4987471;28;20048;-75
2022/06/15 11:52:01;;;;;;;1.45;0.70;;;;;;;21.84;23.06;102038.25;4987709;28;20264;-74
2022/06/15 11:54:58;;;;;;;2.17;1.15;;;;;;;22.11;22.38;102034.66;4990913;28;20258;-74
2022/06/15 11:57:43;;;;;;;3.53;0.68;;;;;;;23.40;20.56;102028.69;4987290;28;20038;-75
2022/06/15 12:00:34;;;;;;;2.95;0.98;;;;;;;24.21;20.88;102031.28;4987617;28;20080;-74
2022/06/15 12:03:09;;;;;;;1.58;0.63;;;;;;;23.49;21.10;102034.28;4973495;28;20050;-74
2022/06/15 12:05:51;;;;;;;2.42;0.60;;;;;;;22.65;21.03;102038.75;4989260;28;20042;-76
2022/06/15 12:08:34;;;;;;;;;;;;;;;22.57;21.95;102042.84;4990368;28;21022;-73